Time;durP1;ratioP1;P1;durP2;ratioP2;P2;SDS_P1;SDS_P2;PMS_P1;PMS_P2;Temp;Humidity;BMP_temperature;BMP_pressure;BME280_temperature;BME280_humidity;BME280_pressure;Samples;Min_cycle;Max_cycle;Signal;HPM_P1;HPM_P2
2023/01/31 00:00:20;;;;;;;15.20;14.70;;;20.10;45.00;;;;;;5073688;28;20527;-56
2023/01/31 00:02:47;;;;;;;15.00;14.50;;;20.10;45.00;;;;;;5073656;28;20452;-59
2023/01/31 00:05:13;;;;;;;15.43;14.83;;;20.10;45.10;;;;;;5061624;28;20519;-57
2023/01/31 00:07:40;;;;;;;14.47;14.07;;;20.10;45.10;;;;;;5053529;28;20538;-57
2023/01/31 00:10:08;;;;;;;15.33;14.73;;;20.10;45.10;;;;;;5053281;28;20490;-57
2023/01/31 00:12:36;;;;;;;15.60;15.00;;;20.10;45.00;;;;;;5053471;28;20439;-59
2023/01/31 00:15:03;;;;;;;15.50;15.00;;;20.10;45.10;;;;;;5054015;28;20450;-57
2023/01/31 00:17:30;;;;;;;14.50;14.10;;;20.10;45.10;;;;;;5053344;28;20480;-57
2023/01/31 00:19:57;;;;;;;15.50;15.00;;;20.00;45.00;;;;;;5053407;28;20523;-60
2023/01/31 00:22:24;;;;;;;15.37;14.93;;;20.00;45.10;;;;;;5053232;28;20795;-58
2023/01/31 00:24:50;;;;;;;15.43;14.93;;;20.00;45.10;;;;;;5064212;28;20812;-57
2023/01/31 00:27:18;;;;;;;16.53;15.93;;;20.00;45.10;;;;;;5073211;28;20546;-57
2023/01/31 00:29:46;;;;;;;15.80;15.23;;;20.00;45.10;;;;;;5072938;28;20490;-57
2023/01/31 00:32:13;;;;;;;16.00;15.37;;;20.00;45.10;;;;;;5073111;28;20534;-58
2023/01/31 00:34:40;;;;;;;16.27;15.77;;;20.00;45.10;;;;;;5062419;28;20527;-60
2023/01/31 00:37:07;;;;;;;15.80;15.20;;;20.00;45.20;;;;;;5053077;28;20539;-57
2023/01/31 00:39:33;;;;;;;14.97;14.47;;;20.00;45.20;;;;;;5053076;28;20531;-57
2023/01/31 00:42:00;;;;;;;15.97;15.27;;;20.00;45.20;;;;;;5053052;28;20531;-57
2023/01/31 00:44:27;;;;;;;15.70;15.13;;;19.90;45.10;;;;;;5060077;28;20538;-58
2023/01/31 00:46:55;;;;;;;15.10;14.70;;;19.90;45.10;;;;;;5072685;28;20447;-57
2023/01/31 00:49:22;;;;;;;16.43;15.83;;;19.90;45.10;;;;;;5072950;28;20483;-58
2023/01/31 00:51:49;;;;;;;16.10;15.47;;;19.90;45.20;;;;;;5072707;28;20451;-57
2023/01/31 00:54:16;;;;;;;15.87;15.27;;;19.90;45.10;;;;;;5067138;28;20547;-57
2023/01/31 00:56:43;;;;;;;15.73;15.17;;;19.90;45.20;;;;;;5052778;28;20530;-59
2023/01/31 00:59:10;;;;;;;15.50;15.00;;;19.90;45.80;;;;;;5052442;28;20472;-58
2023/01/31 01:01:37;;;;;;;15.17;14.67;;;19.90;45.20;;;;;;5052468;28;20444;-57
2023/01/31 01:04:06;;;;;;;15.53;14.93;;;19.90;45.20;;;;;;5056168;28;20530;-58
2023/01/31 01:06:33;;;;;;;15.13;14.63;;;19.90;45.30;;;;;;5072631;28;20458;-58
2023/01/31 01:08:59;;;;;;;15.00;14.50;;;19.90;45.20;;;;;;5072303;28;20463;-56
2023/01/31 01:11:29;;;;;;;15.37;14.80;;;19.90;45.20;;;;;;5072224;28;20573;-60
2023/01/31 01:13:56;;;;;;;15.30;14.80;;;19.90;45.30;;;;;;5071886;28;20894;-58
2023/01/31 01:16:25;;;;;;;14.50;14.10;;;19.90;45.20;;;;;;5072439;28;20443;-59
2023/01/31 01:18:53;;;;;;;14.87;14.37;;;19.90;45.20;;;;;;5072020;28;20479;-57
2023/01/31 01:21:23;;;;;;;15.07;14.50;;;19.90;45.30;;;;;;5072147;28;20443;-59
2023/01/31 01:23:51;;;;;;;15.20;14.60;;;19.90;45.30;;;;;;5056857;28;20964;-56
2023/01/31 01:26:20;;;;;;;15.10;14.60;;;19.90;45.30;;;;;;5052258;28;20959;-57
2023/01/31 01:28:48;;;;;;;14.90;14.40;;;19.80;45.20;;;;;;5051805;28;20552;-58
2023/01/31 01:31:16;;;;;;;14.83;14.30;;;19.80;45.30;;;;;;5052344;28;20483;-57
2023/01/31 01:33:43;;;;;;;14.60;14.10;;;19.80;45.20;;;;;;5052486;28;20448;-58
2023/01/31 01:36:12;;;;;;;14.43;14.03;;;19.80;45.30;;;;;;5052134;28;20456;-57
2023/01/31 01:38:40;;;;;;;14.30;13.80;;;19.80;45.30;;;;;;5051962;28;20471;-57
2023/01/31 01:41:08;;;;;;;15.43;14.93;;;19.80;45.30;;;;;;5051825;28;20531;-60
2023/01/31 01:43:42;;;;;;;15.73;15.07;;;19.80;45.30;;;;;;5064591;28;20458;-58
2023/01/31 01:46:13;;;;;;;16.00;15.40;;;19.80;45.30;;;;;;5071822;28;20520;-58
2023/01/31 01:48:41;;;;;;;15.17;14.67;;;19.80;45.30;;;;;;5072559;28;20998;-60
2023/01/31 01:51:08;;;;;;;15.10;14.60;;;19.80;45.30;;;;;;5072450;28;20486;-57
2023/01/31 01:53:38;;;;;;;14.63;14.13;;;19.80;45.30;;;;;;5064169;28;20445;-59
2023/01/31 01:56:11;;;;;;;14.87;14.37;;;19.80;45.40;;;;;;5052608;28;20539;-56
2023/01/31 01:58:42;;;;;;;14.40;14.00;;;19.80;45.30;;;;;;5052627;28;20469;-60
2023/01/31 02:01:12;;;;;;;14.93;14.30;;;19.80;45.40;;;;;;5052180;28;20448;-57
2023/01/31 02:03:40;;;;;;;14.73;14.23;;;19.70;45.30;;;;;;5052287;28;20535;-57
2023/01/31 02:06:08;;;;;;;15.47;14.87;;;19.70;45.30;;;;;;5051779;28;20454;-56
2023/01/31 02:08:37;;;;;;;14.40;13.80;;;19.70;45.30;;;;;;5051476;28;20832;-53
2023/01/31 02:11:09;;;;;;;14.30;13.90;;;19.70;45.30;;;;;;5051235;28;21076;-58
2023/01/31 02:13:39;;;;;;;16.00;15.40;;;19.80;45.40;;;;;;5063087;28;20454;-58
2023/01/31 02:16:06;;;;;;;15.23;14.47;;;19.80;45.40;;;;;;5071636;28;20447;-57
2023/01/31 02:18:33;;;;;;;14.70;14.10;;;19.70;45.30;;;;;;5071262;28;20474;-55
2023/01/31 02:21:32;;;;;;;14.83;14.27;;;19.70;45.40;;;;;;5067264;28;20442;-56
2023/01/31 02:24:53;;;;;;;14.60;14.10;;;19.70;45.30;;;;;;5056096;28;20815;-57
2023/01/31 02:27:55;;;;;;;15.37;14.80;;;19.70;45.40;;;;;;4935236;28;20461;-54
2023/01/31 02:30:51;;;;;;;14.87;14.37;;;19.70;45.40;;;;;;5020788;28;20480;-57
2023/01/31 02:33:25;;;;;;;14.47;14.00;;;19.70;46.00;;;;;;5031469;28;20441;-58
2023/01/31 02:36:11;;;;;;;14.70;14.20;;;19.70;45.50;;;;;;5031465;28;20444;-56
2023/01/31 02:38:57;;;;;;;14.40;14.00;;;19.70;45.50;;;;;;5031261;28;20464;-57
2023/01/31 02:41:33;;;;;;;14.97;14.47;;;19.70;45.50;;;;;;5045074;28;20458;-54
2023/01/31 02:46:57;;;;;;;14.77;14.33;;;19.70;45.50;;;;;;5071314;28;20530;-58
2023/01/31 02:49:34;;;;;;;14.70;14.20;;;19.70;45.50;;;;;;5071134;28;20458;-58
2023/01/31 02:52:16;;;;;;;15.00;14.50;;;19.70;45.50;;;;;;5070857;28;20497;-57
2023/01/31 02:57:40;;;;;;;15.10;14.60;;;19.70;45.50;;;;;;5072908;28;20533;-61
2023/01/31 03:00:10;;;;;;;15.37;14.77;;;19.70;45.50;;;;;;5074840;28;20443;-58
2023/01/31 03:02:37;;;;;;;14.93;14.53;;;19.70;45.50;;;;;;5058581;28;20448;-58
2023/01/31 03:05:06;;;;;;;15.43;14.83;;;19.70;45.50;;;;;;5054825;28;20450;-58
2023/01/31 03:07:36;;;;;;;15.03;14.53;;;19.70;45.50;;;;;;5054995;28;20471;-58
2023/01/31 03:10:15;;;;;;;14.30;13.80;;;19.70;45.60;;;;;;5054555;28;20480;-59
2023/01/31 03:13:00;;;;;;;15.33;14.83;;;19.70;45.60;;;;;;5071035;28;20952;-58
2023/01/31 03:18:42;;;;;;;15.07;14.57;;;19.70;45.60;;;;;;5074437;28;20458;-61
2023/01/31 03:21:16;;;;;;;14.80;14.30;;;19.70;45.60;;;;;;5070793;28;20528;-61
2023/01/31 03:23:48;;;;;;;15.07;14.40;;;19.70;45.70;;;;;;5054589;28;20813;-58
2023/01/31 03:26:18;;;;;;;15.20;14.60;;;19.70;45.60;;;;;;5054470;28;20443;-60
2023/01/31 03:28:46;;;;;;;14.60;14.20;;;19.70;45.60;;;;;;5034523;28;20902;-58
2023/01/31 03:31:18;;;;;;;15.47;14.67;;;19.70;45.70;;;;;;5042220;28;20478;-59
2023/01/31 03:33:48;;;;;;;16.17;15.17;;;19.70;45.70;;;;;;5074269;28;20444;-58
2023/01/31 03:36:26;;;;;;;15.30;14.80;;;19.70;45.60;;;;;;5074252;28;20449;-61
2023/01/31 03:39:02;;;;;;;13.70;13.30;;;19.70;45.60;;;;;;5073969;28;20588;-58
2023/01/31 03:41:34;;;;;;;15.23;14.63;;;19.70;45.60;;;;;;5068360;28;20956;-58
2023/01/31 03:44:07;;;;;;;15.90;15.30;;;19.70;45.60;;;;;;5054155;28;20444;-58
2023/01/31 03:46:38;;;;;;;14.47;14.00;;;19.70;45.60;;;;;;5054070;28;20454;-55
2023/01/31 03:49:10;;;;;;;15.20;14.50;;;19.70;45.60;;;;;;5054064;28;20474;-58
2023/01/31 03:51:42;;;;;;;14.60;14.20;;;19.70;45.60;;;;;;5060146;28;20819;-57
2023/01/31 03:54:14;;;;;;;15.20;14.67;;;19.70;45.60;;;;;;5073923;28;20461;-61
2023/01/31 03:56:45;;;;;;;14.90;14.40;;;19.70;45.60;;;;;;5073908;28;20454;-59
2023/01/31 03:59:15;;;;;;;14.77;14.20;;;19.70;45.60;;;;;;5073793;28;20816;-58
2023/01/31 04:01:51;;;;;;;15.60;14.90;;;19.70;45.60;;;;;;5068460;28;20524;-59
2023/01/31 04:04:23;;;;;;;15.77;15.27;;;19.70;45.60;;;;;;5054213;28;20440;-59
2023/01/31 04:06:51;;;;;;;15.33;14.83;;;19.70;45.70;;;;;;5053648;28;20448;-59
2023/01/31 04:09:18;;;;;;;15.40;14.90;;;19.70;45.70;;;;;;5054481;28;20543;-61
2023/01/31 04:11:50;;;;;;;15.10;14.60;;;19.70;45.70;;;;;;5053667;28;20841;-59
2023/01/31 04:14:18;;;;;;;15.23;14.63;;;19.70;45.60;;;;;;5053594;28;20949;-60
2023/01/31 04:16:44;;;;;;;15.20;14.53;;;19.70;45.60;;;;;;5053349;28;20968;-56
2023/01/31 04:19:11;;;;;;;15.17;14.67;;;19.70;45.70;;;;;;5068079;28;20466;-61
2023/01/31 04:21:38;;;;;;;15.13;14.53;;;19.70;45.80;;;;;;5073429;28;20439;-59
2023/01/31 04:24:08;;;;;;;14.70;14.30;;;19.70;45.70;;;;;;5073376;28;20539;-60
2023/01/31 04:26:35;;;;;;;15.97;15.47;;;19.80;45.70;;;;;;5073350;28;20450;-59
2023/01/31 04:29:01;;;;;;;15.17;14.77;;;19.70;45.60;;;;;;5072419;28;20498;-59
2023/01/31 04:31:28;;;;;;;15.77;15.27;;;19.80;45.70;;;;;;5073068;28;20489;-60
2023/01/31 04:33:56;;;;;;;16.20;15.50;;;19.80;45.70;;;;;;5072584;28;20455;-59
2023/01/31 04:36:23;;;;;;;15.33;14.83;;;19.80;45.70;;;;;;5073135;28;20447;-58
2023/01/31 04:38:50;;;;;;;16.47;15.90;;;19.80;45.70;;;;;;5061474;28;20837;-58
2023/01/31 04:41:19;;;;;;;15.37;14.77;;;19.80;45.80;;;;;;5052841;28;20444;-57
2023/01/31 04:43:46;;;;;;;16.17;15.67;;;19.80;45.80;;;;;;5053211;28;20960;-59
2023/01/31 04:46:13;;;;;;;15.87;15.27;;;19.80;45.70;;;;;;5053052;28;20454;-61
2023/01/31 04:48:40;;;;;;;15.70;15.10;;;19.80;45.80;;;;;;5061876;28;21229;-58
2023/01/31 04:51:07;;;;;;;15.70;15.30;;;19.80;45.70;;;;;;5072492;28;20518;-59
2023/01/31 04:53:34;;;;;;;15.43;14.93;;;19.80;45.70;;;;;;5072785;28;20459;-58
2023/01/31 04:56:01;;;;;;;16.03;15.43;;;19.80;45.80;;;;;;5072667;28;21023;-59
2023/01/31 04:58:30;;;;;;;16.00;15.40;;;19.80;45.70;;;;;;5072011;28;20562;-58
2023/01/31 05:00:56;;;;;;;15.87;15.30;;;19.80;45.80;;;;;;5072468;28;20821;-60
2023/01/31 05:03:23;;;;;;;16.30;15.70;;;19.80;45.80;;;;;;5072571;28;20439;-61
2023/01/31 05:05:51;;;;;;;16.50;15.90;;;19.80;45.80;;;;;;5072540;28;20458;-57
2023/01/31 05:08:17;;;;;;;17.30;16.70;;;19.80;45.80;;;;;;5066611;28;20466;-60
2023/01/31 05:10:44;;;;;;;16.70;15.90;;;19.80;45.80;;;;;;5052226;28;20483;-60
2023/01/31 05:13:11;;;;;;;16.30;15.80;;;19.80;46.00;;;;;;5052316;28;20448;-60
2023/01/31 05:15:40;;;;;;;16.20;15.60;;;19.80;46.10;;;;;;5052305;28;20450;-59
2023/01/31 05:18:07;;;;;;;16.00;15.50;;;19.90;46.00;;;;;;5056374;28;20506;-61
2023/01/31 05:20:38;;;;;;;16.10;15.60;;;19.90;46.10;;;;;;5071444;28;20465;-61
2023/01/31 05:23:05;;;;;;;16.90;16.23;;;19.80;46.10;;;;;;5072294;28;20451;-61
2023/01/31 05:25:32;;;;;;;17.07;16.47;;;19.80;46.30;;;;;;5072273;28;20947;-59
2023/01/31 05:27:59;;;;;;;16.40;15.90;;;19.80;46.20;;;;;;5070337;28;20557;-57
2023/01/31 05:30:26;;;;;;;17.57;16.77;;;19.80;46.20;;;;;;5070985;28;20458;-60
2023/01/31 05:32:54;;;;;;;15.93;15.43;;;19.80;46.30;;;;;;5052003;28;20891;-60
2023/01/31 05:35:21;;;;;;;15.90;15.40;;;19.80;46.20;;;;;;5052097;28;20440;-60
2023/01/31 05:37:48;;;;;;;17.70;16.90;;;19.80;46.20;;;;;;5052388;28;20824;-61
2023/01/31 05:40:17;;;;;;;17.07;16.37;;;19.90;46.00;;;;;;5071768;28;20457;-60
2023/01/31 05:42:44;;;;;;;16.77;16.27;;;19.90;45.70;;;;;;5071993;28;20443;-60
2023/01/31 05:45:15;;;;;;;18.03;16.93;;;20.00;45.70;;;;;;5071758;28;20469;-61
2023/01/31 05:47:42;;;;;;;18.40;17.30;;;20.00;46.00;;;;;;5071816;28;20467;-61
2023/01/31 05:50:11;;;;;;;19.27;17.70;;;20.10;47.20;;;;;;5067466;28;20451;-63
2023/01/31 05:52:38;;;;;;;18.83;17.37;;;20.10;48.60;;;;;;5069985;28;20483;-62
2023/01/31 05:55:06;;;;;;;19.33;17.90;;;20.30;48.90;;;;;;5071026;28;20534;-63
2023/01/31 05:57:33;;;;;;;17.33;16.63;;;20.40;48.60;;;;;;5071626;28;20495;-63
2023/01/31 06:00:00;;;;;;;18.60;17.17;;;20.50;48.20;;;;;;5071457;28;20446;-62
2023/01/31 06:02:27;;;;;;;17.73;16.83;;;20.50;47.70;;;;;;5071690;28;20451;-63
2023/01/31 06:04:54;;;;;;;20.57;18.97;;;20.60;47.40;;;;;;5071641;28;20451;-62
2023/01/31 06:07:22;;;;;;;21.10;19.43;;;20.60;47.10;;;;;;5071658;28;20549;-63
2023/01/31 06:09:49;;;;;;;18.70;17.90;;;20.70;46.90;;;;;;5071369;28;20478;-61
2023/01/31 06:12:16;;;;;;;18.90;17.80;;;20.70;46.60;;;;;;5071433;28;20483;-61
2023/01/31 06:14:44;;;;;;;17.83;17.13;;;20.70;46.40;;;;;;5071506;28;20453;-61
2023/01/31 06:17:11;;;;;;;18.80;17.90;;;20.80;46.20;;;;;;5071399;28;20483;-63
2023/01/31 06:19:38;;;;;;;18.70;17.90;;;20.80;46.00;;;;;;5071346;28;20454;-62
2023/01/31 06:22:05;;;;;;;19.73;18.60;;;20.80;45.80;;;;;;5071467;28;20522;-63
2023/01/31 06:24:34;;;;;;;18.97;17.70;;;20.80;45.60;;;;;;5071529;28;20448;-63
2023/01/31 06:27:00;;;;;;;18.43;17.20;;;20.80;45.50;;;;;;5071460;28;20465;-62
2023/01/31 06:29:27;;;;;;;19.33;18.30;;;20.80;45.40;;;;;;5071246;28;20447;-63
2023/01/31 06:31:54;;;;;;;18.07;17.10;;;20.80;45.20;;;;;;5073659;28;20485;-62
2023/01/31 06:34:21;;;;;;;21.00;20.10;;;20.80;45.10;;;;;;5075515;28;20882;-63
2023/01/31 06:36:48;;;;;;;17.90;16.80;;;20.80;45.00;;;;;;5075308;28;20451;-63
2023/01/31 06:39:15;;;;;;;17.93;16.90;;;20.80;44.90;;;;;;5075304;28;20655;-63
2023/01/31 06:41:43;;;;;;;17.77;16.90;;;20.80;44.80;;;;;;5075301;28;20443;-63
2023/01/31 06:44:10;;;;;;;18.40;17.27;;;20.80;44.80;;;;;;5075194;28;20793;-62
2023/01/31 06:46:37;;;;;;;17.67;16.70;;;20.80;44.70;;;;;;5075268;28;20534;-62
2023/01/31 06:49:04;;;;;;;17.77;16.80;;;20.80;44.60;;;;;;5074898;28;20467;-62
2023/01/31 06:51:31;;;;;;;16.63;15.83;;;20.80;44.60;;;;;;5075262;28;21007;-61
2023/01/31 06:53:58;;;;;;;18.60;17.70;;;20.80;44.60;;;;;;5075070;28;20453;-62
2023/01/31 06:56:25;;;;;;;18.13;17.43;;;20.70;44.40;;;;;;5075029;28;20470;-61
2023/01/31 06:58:53;;;;;;;18.50;17.60;;;20.70;44.30;;;;;;5074687;28;20558;-62
2023/01/31 07:01:21;;;;;;;18.03;17.20;;;20.80;44.40;;;;;;5075081;28;20440;-62
2023/01/31 07:03:48;;;;;;;19.10;18.30;;;20.80;44.30;;;;;;5075117;28;20956;-63
2023/01/31 07:06:17;;;;;;;18.60;17.50;;;20.70;44.20;;;;;;5074876;28;20474;-61
2023/01/31 07:08:44;;;;;;;20.53;19.63;;;20.80;44.20;;;;;;5074821;28;20499;-63
2023/01/31 07:11:10;;;;;;;18.67;17.97;;;20.80;44.10;;;;;;5074539;28;21007;-62
2023/01/31 07:13:37;;;;;;;18.10;17.50;;;20.80;44.00;;;;;;5074634;28;20526;-63
2023/01/31 07:16:06;;;;;;;18.87;17.63;;;20.90;44.00;;;;;;5074653;28;20533;-63
2023/01/31 07:18:33;;;;;;;18.30;17.40;;;20.90;43.90;;;;;;5074461;28;20471;-62
2023/01/31 07:20:59;;;;;;;17.97;17.10;;;21.00;43.90;;;;;;5074703;28;20538;-63
2023/01/31 07:23:26;;;;;;;18.23;17.43;;;21.00;43.80;;;;;;5074865;28;20878;-61
2023/01/31 07:25:53;;;;;;;19.17;18.37;;;21.00;43.70;;;;;;5074674;28;20538;-61
2023/01/31 07:28:20;;;;;;;19.23;18.33;;;21.10;43.70;;;;;;5074345;28;20773;-58
2023/01/31 07:30:47;;;;;;;18.10;17.40;;;21.10;43.60;;;;;;5074155;28;20447;-60
2023/01/31 07:33:15;;;;;;;18.87;18.17;;;21.10;43.50;;;;;;5074152;28;20514;-56
2023/01/31 07:35:42;;;;;;;18.63;17.93;;;21.20;43.60;;;;;;5074332;28;20522;-60
2023/01/31 07:38:09;;;;;;;19.80;18.80;;;21.20;43.50;;;;;;5074302;28;20474;-58
2023/01/31 07:40:36;;;;;;;18.60;17.90;;;21.20;43.40;;;;;;5074031;28;20449;-61
2023/01/31 07:43:03;;;;;;;20.33;19.23;;;21.10;43.30;;;;;;5073484;28;20487;-61
2023/01/31 07:45:29;;;;;;;19.10;18.27;;;21.10;43.30;;;;;;5074017;28;20546;-61
2023/01/31 07:47:58;;;;;;;18.27;17.47;;;21.20;43.30;;;;;;5074047;28;20467;-59
2023/01/31 07:50:27;;;;;;;18.60;17.80;;;21.10;43.20;;;;;;5073757;28;20820;-59
2023/01/31 07:52:53;;;;;;;18.73;17.93;;;21.10;43.20;;;;;;5073810;28;21004;-61
2023/01/31 07:55:20;;;;;;;17.77;17.07;;;21.10;43.20;;;;;;5073908;28;20449;-59
2023/01/31 07:57:47;;;;;;;18.30;17.50;;;21.10;43.10;;;;;;5073845;28;20495;-60
2023/01/31 08:05:41;;;;;;;17.40;16.80;;;21.00;43.00;;;;;;5073778;28;20426;-61
2023/01/31 08:08:10;;;;;;;18.10;17.40;;;21.00;43.00;;;;;;5073575;28;20911;-60
2023/01/31 08:10:37;;;;;;;17.47;16.77;;;21.00;43.00;;;;;;5073303;28;20446;-59
2023/01/31 08:13:05;;;;;;;18.03;17.40;;;21.00;42.90;;;;;;5073475;28;20478;-59
2023/01/31 08:15:32;;;;;;;18.70;17.80;;;21.00;42.80;;;;;;5073396;28;20459;-61
2023/01/31 08:17:58;;;;;;;18.13;17.37;;;21.00;42.80;;;;;;5073371;28;21000;-60
2023/01/31 08:20:25;;;;;;;18.33;17.50;;;20.90;42.70;;;;;;5073516;28;20545;-62
2023/01/31 08:22:53;;;;;;;18.03;17.30;;;20.90;42.80;;;;;;5073419;28;20435;-60
2023/01/31 08:25:21;;;;;;;18.43;17.47;;;20.90;42.80;;;;;;5073347;28;20925;-61
2023/01/31 08:27:48;;;;;;;18.37;17.67;;;20.90;42.80;;;;;;5073273;28;20554;-60
2023/01/31 08:30:15;;;;;;;18.40;17.70;;;20.90;42.80;;;;;;5073102;28;20538;-60
2023/01/31 08:32:42;;;;;;;18.80;17.90;;;21.00;42.80;;;;;;5073156;28;20489;-62
2023/01/31 08:35:09;;;;;;;17.30;16.60;;;21.00;42.80;;;;;;5073102;28;20534;-60
2023/01/31 08:37:36;;;;;;;17.50;16.80;;;21.00;42.80;;;;;;5073181;28;20780;-60
2023/01/31 08:40:05;;;;;;;17.80;17.10;;;21.10;42.80;;;;;;5072811;28;20892;-61
2023/01/31 08:42:31;;;;;;;18.00;17.20;;;21.10;42.70;;;;;;5073144;28;20435;-59
2023/01/31 08:44:58;;;;;;;18.23;17.43;;;21.10;42.60;;;;;;5072958;28;21013;-60
2023/01/31 08:47:25;;;;;;;17.73;16.93;;;21.20;42.70;;;;;;5072846;28;20547;-62
2023/01/31 08:49:52;;;;;;;17.40;16.70;;;21.20;42.70;;;;;;5072645;28;20451;-61
2023/01/31 08:52:18;;;;;;;17.37;16.77;;;21.20;42.60;;;;;;5072771;28;21017;-61
2023/01/31 08:54:45;;;;;;;17.53;16.83;;;21.20;42.50;;;;;;5071783;28;20549;-61
2023/01/31 08:57:14;;;;;;;17.40;16.70;;;21.20;42.50;;;;;;5072657;28;20893;-58
2023/01/31 08:59:40;;;;;;;17.57;16.77;;;21.20;42.40;;;;;;5072549;28;20941;-63
2023/01/31 09:02:10;;;;;;;17.50;16.90;;;21.30;42.50;;;;;;5072597;28;20517;-60
2023/01/31 09:04:37;;;;;;;17.50;16.50;;;21.30;42.40;;;;;;5072477;28;20443;-60
2023/01/31 09:07:04;;;;;;;17.83;17.13;;;21.30;42.40;;;;;;5072548;28;20868;-62
2023/01/31 09:09:31;;;;;;;17.20;16.60;;;21.20;42.20;;;;;;5072197;28;20440;-62
2023/01/31 09:11:57;;;;;;;17.87;16.90;;;21.20;42.30;;;;;;5072577;28;21086;-61
2023/01/31 09:14:25;;;;;;;17.30;16.70;;;21.20;42.20;;;;;;5072401;28;20444;-60
2023/01/31 09:16:52;;;;;;;17.27;16.57;;;21.20;42.20;;;;;;5072253;28;20835;-60
2023/01/31 09:19:21;;;;;;;18.43;17.63;;;21.20;42.20;;;;;;5072118;28;20538;-62
2023/01/31 09:21:48;;;;;;;17.47;16.83;;;21.20;42.20;;;;;;5072390;28;20474;-61
2023/01/31 09:24:15;;;;;;;17.63;17.03;;;21.20;42.10;;;;;;5072281;28;20451;-57
2023/01/31 09:26:41;;;;;;;19.27;18.40;;;21.20;42.10;;;;;;5072136;28;20449;-62
2023/01/31 09:29:08;;;;;;;17.80;17.07;;;21.20;42.10;;;;;;5071889;28;20558;-62
2023/01/31 09:31:36;;;;;;;17.93;17.17;;;21.20;42.10;;;;;;5072004;28;20883;-61
2023/01/31 09:34:03;;;;;;;18.40;17.60;;;21.20;42.10;;;;;;5072123;28;20493;-61
2023/01/31 09:36:30;;;;;;;18.13;17.40;;;21.20;42.10;;;;;;5072108;28;20542;-62
2023/01/31 09:38:57;;;;;;;17.87;17.27;;;21.10;42.00;;;;;;5071764;28;21064;-61
2023/01/31 09:41:30;;;;;;;20.10;19.10;;;21.10;42.00;;;;;;5071934;28;20444;-62
2023/01/31 09:43:59;;;;;;;17.40;16.80;;;21.10;41.90;;;;;;5072012;28;20435;-60
2023/01/31 09:46:31;;;;;;;18.00;17.30;;;21.10;42.00;;;;;;5071878;28;20466;-60
2023/01/31 09:49:04;;;;;;;17.80;17.10;;;21.00;41.90;;;;;;5071686;28;20471;-62
2023/01/31 09:51:33;;;;;;;18.20;17.50;;;21.00;41.90;;;;;;5071757;28;20439;-60
2023/01/31 09:54:01;;;;;;;18.40;17.57;;;21.10;42.00;;;;;;5071739;28;20482;-60
2023/01/31 09:56:34;;;;;;;17.90;17.20;;;21.10;41.90;;;;;;5071782;28;20602;-60
2023/01/31 09:59:12;;;;;;;18.03;17.43;;;21.10;41.90;;;;;;5071685;28;20463;-62
2023/01/31 10:01:45;;;;;;;18.30;17.50;;;21.20;41.90;;;;;;5071894;28;20462;-60
2023/01/31 10:04:31;;;;;;;17.93;17.23;;;21.20;41.90;;;;;;5071896;28;20444;-62
2023/01/31 10:07:04;;;;;;;18.20;17.50;;;21.30;42.50;;;;;;5071386;28;20442;-60
2023/01/31 10:09:35;;;;;;;18.70;18.03;;;21.30;41.90;;;;;;5071399;28;20530;-61
2023/01/31 10:12:10;;;;;;;18.10;17.50;;;21.30;41.90;;;;;;5071652;28;20636;-59
2023/01/31 10:14:45;;;;;;;18.47;17.80;;;21.30;41.80;;;;;;5071608;28;20443;-58
2023/01/31 10:17:17;;;;;;;18.63;17.97;;;21.30;41.80;;;;;;5071349;28;20921;-60
2023/01/31 10:19:50;;;;;;;18.60;17.50;;;21.30;41.70;;;;;;5071322;28;20947;-61
2023/01/31 10:22:22;;;;;;;18.13;17.43;;;21.30;41.70;;;;;;5071628;28;20457;-61
2023/01/31 10:24:55;;;;;;;18.97;18.17;;;21.30;41.70;;;;;;5071466;28;20461;-60
2023/01/31 10:27:39;;;;;;;17.83;17.20;;;21.30;41.70;;;;;;5071471;28;20470;-60
2023/01/31 10:30:16;;;;;;;18.23;17.53;;;21.30;41.70;;;;;;5071610;28;20534;-60
2023/01/31 10:32:47;;;;;;;18.37;17.60;;;21.30;41.70;;;;;;5071346;28;21022;-60
2023/01/31 10:35:19;;;;;;;18.07;17.37;;;21.30;41.60;;;;;;5071440;28;20927;-60
2023/01/31 10:37:49;;;;;;;18.20;17.60;;;21.30;41.60;;;;;;5071324;28;20475;-62
2023/01/31 10:40:19;;;;;;;18.83;18.07;;;21.20;41.60;;;;;;5071161;28;20931;-61
2023/01/31 10:42:51;;;;;;;17.57;16.87;;;21.20;41.50;;;;;;5071283;28;20948;-60
2023/01/31 10:45:20;;;;;;;19.03;18.23;;;21.20;41.50;;;;;;5071413;28;20443;-61
2023/01/31 10:47:50;;;;;;;18.80;18.20;;;21.20;41.50;;;;;;5071515;28;20463;-62
2023/01/31 10:50:23;;;;;;;18.10;17.33;;;21.20;41.50;;;;;;5071023;28;20454;-60
2023/01/31 10:53:02;;;;;;;18.23;17.23;;;21.20;41.50;;;;;;5071195;28;20490;-61
2023/01/31 10:55:50;;;;;;;18.50;17.50;;;21.20;41.50;;;;;;5071137;28;20457;-59
2023/01/31 10:58:21;;;;;;;18.57;17.73;;;21.20;41.50;;;;;;5071118;28;20820;-60
2023/01/31 11:00:48;;;;;;;18.47;17.77;;;21.10;41.40;;;;;;5070924;28;20443;-62
2023/01/31 11:03:16;;;;;;;18.23;17.53;;;21.10;41.40;;;;;;5071046;28;20476;-60
2023/01/31 11:05:49;;;;;;;18.30;17.60;;;21.10;41.50;;;;;;5071343;28;20446;-61
2023/01/31 11:08:30;;;;;;;18.30;17.60;;;21.00;41.50;;;;;;5070997;28;20964;-62
2023/01/31 11:10:58;;;;;;;17.70;16.90;;;21.00;41.50;;;;;;5070842;28;20447;-60
2023/01/31 11:13:25;;;;;;;17.53;16.83;;;21.10;41.50;;;;;;5071034;28;20489;-59
2023/01/31 11:15:54;;;;;;;17.80;17.20;;;21.10;41.50;;;;;;5070970;28;20539;-60
2023/01/31 11:18:29;;;;;;;18.00;17.40;;;21.10;41.50;;;;;;5072856;28;20477;-62
2023/01/31 11:20:59;;;;;;;18.50;17.80;;;21.20;41.50;;;;;;5074317;28;20453;-62
2023/01/31 11:23:30;;;;;;;17.50;16.90;;;21.20;41.50;;;;;;5074685;28;20443;-63
2023/01/31 11:25:58;;;;;;;17.23;16.73;;;21.20;41.50;;;;;;5074496;28;20443;-62
2023/01/31 11:28:33;;;;;;;17.93;17.13;;;21.20;41.50;;;;;;5074446;28;20465;-62
2023/01/31 11:31:00;;;;;;;17.40;16.70;;;21.20;41.40;;;;;;5074221;28;20936;-62
2023/01/31 11:33:43;;;;;;;18.00;17.40;;;21.30;41.50;;;;;;5074420;28;20479;-63
2023/01/31 11:36:13;;;;;;;18.20;17.50;;;21.30;41.40;;;;;;5074260;28;20475;-62
2023/01/31 11:38:40;;;;;;;17.80;17.20;;;21.30;41.40;;;;;;5074398;28;20463;-62
2023/01/31 11:41:29;;;;;;;18.23;17.53;;;21.40;41.50;;;;;;5073992;28;20443;-62
2023/01/31 11:44:12;;;;;;;17.80;17.20;;;21.40;41.40;;;;;;5074077;28;20447;-62
2023/01/31 11:46:48;;;;;;;17.70;17.00;;;21.40;41.40;;;;;;5074154;28;20936;-62
2023/01/31 11:49:22;;;;;;;17.00;16.40;;;21.40;41.40;;;;;;5073950;28;20449;-63
2023/01/31 11:51:50;;;;;;;18.13;17.33;;;21.30;41.30;;;;;;5073946;28;20443;-62
2023/01/31 11:54:21;;;;;;;18.20;17.50;;;21.40;41.40;;;;;;5073868;28;20479;-63
2023/01/31 11:56:48;;;;;;;18.33;17.53;;;21.30;41.30;;;;;;5074028;28;20443;-62
2023/01/31 11:59:20;;;;;;;17.70;17.10;;;21.30;41.30;;;;;;5073726;28;20473;-62
2023/01/31 12:01:50;;;;;;;18.10;17.47;;;21.30;41.30;;;;;;5073765;28;20914;-63
2023/01/31 12:04:22;;;;;;;18.20;17.60;;;21.30;41.30;;;;;;5073992;28;20877;-62
2023/01/31 12:07:02;;;;;;;18.03;17.43;;;21.30;41.30;;;;;;5073673;28;20458;-63
2023/01/31 12:09:32;;;;;;;17.67;16.97;;;21.20;41.20;;;;;;5073539;28;20550;-63
2023/01/31 12:12:01;;;;;;;17.73;17.03;;;21.20;41.30;;;;;;5073880;28;20456;-62
2023/01/31 12:14:38;;;;;;;18.07;17.47;;;21.20;41.30;;;;;;5073536;28;20490;-63
2023/01/31 12:17:07;;;;;;;17.57;16.97;;;21.20;41.30;;;;;;5073493;28;20469;-62
2023/01/31 12:19:47;;;;;;;17.77;17.07;;;21.20;41.30;;;;;;5073446;28;20451;-63
2023/01/31 12:22:22;;;;;;;18.30;17.60;;;21.20;41.30;;;;;;5073474;28;20446;-61
2023/01/31 12:25:02;;;;;;;18.23;17.53;;;21.20;41.20;;;;;;5073477;28;20457;-62
2023/01/31 12:27:46;;;;;;;18.47;17.43;;;21.10;41.10;;;;;;5073304;28;20473;-62
2023/01/31 12:30:34;;;;;;;17.03;16.50;;;21.10;41.20;;;;;;5073021;28;20439;-62
2023/01/31 12:33:15;;;;;;;17.77;17.00;;;21.10;41.30;;;;;;5073214;28;20490;-62
2023/01/31 12:35:57;;;;;;;17.20;16.60;;;21.00;41.20;;;;;;5073075;28;20448;-62
2023/01/31 12:38:45;;;;;;;17.40;16.80;;;21.00;41.30;;;;;;5073188;28;20470;-62
2023/01/31 12:41:26;;;;;;;17.03;16.53;;;21.10;41.30;;;;;;5073092;28;20824;-63
2023/01/31 12:44:14;;;;;;;17.60;16.80;;;21.10;41.40;;;;;;5073090;28;20436;-62
2023/01/31 12:46:53;;;;;;;17.33;16.73;;;21.10;41.40;;;;;;5073232;28;20802;-62
2023/01/31 12:49:39;;;;;;;17.53;16.90;;;21.10;41.40;;;;;;5073427;28;20725;-62
2023/01/31 12:52:15;;;;;;;17.17;16.67;;;21.20;41.40;;;;;;5072826;28;20461;-63
2023/01/31 12:54:57;;;;;;;17.40;16.70;;;21.20;41.40;;;;;;5073216;28;20483;-63
2023/01/31 12:57:33;;;;;;;17.87;17.27;;;21.30;41.50;;;;;;5073889;28;20473;-63